sensor_id;sensor_type;location;lat;lon;timestamp;temperature;humidity
70820;DHT22;58439;51.046;13.692;2023-02-11T00:01:42;2.70;85.00
70820;DHT22;58439;51.046;13.692;2023-02-11T00:04:10;2.70;85.40
70820;DHT22;58439;51.046;13.692;2023-02-11T00:06:37;2.70;85.50
70820;DHT22;58439;51.046;13.692;2023-02-11T00:09:05;2.80;85.80
70820;DHT22;58439;51.046;13.692;2023-02-11T00:11:51;2.80;86.10
70820;DHT22;58439;51.046;13.692;2023-02-11T00:14:20;2.80;87.10
70820;DHT22;58439;51.046;13.692;2023-02-11T00:16:47;2.90;87.10
70820;DHT22;58439;51.046;13.692;2023-02-11T00:19:15;3.00;86.50
70820;DHT22;58439;51.046;13.692;2023-02-11T00:21:42;3.10;85.90
70820;DHT22;58439;51.046;13.692;2023-02-11T00:24:15;3.10;85.40
70820;DHT22;58439;51.046;13.692;2023-02-11T00:26:42;3.10;85.20
70820;DHT22;58439;51.046;13.692;2023-02-11T00:29:10;3.20;85.00
70820;DHT22;58439;51.046;13.692;2023-02-11T00:31:39;3.10;85.00
70820;DHT22;58439;51.046;13.692;2023-02-11T00:34:07;3.20;85.00
70820;DHT22;58439;51.046;13.692;2023-02-11T00:36:37;3.20;84.80
70820;DHT22;58439;51.046;13.692;2023-02-11T00:39:05;3.20;84.70
70820;DHT22;58439;51.046;13.692;2023-02-11T00:41:35;3.20;84.70
70820;DHT22;58439;51.046;13.692;2023-02-11T00:44:03;3.20;84.90
70820;DHT22;58439;51.046;13.692;2023-02-11T00:46:30;3.30;85.00
70820;DHT22;58439;51.046;13.692;2023-02-11T00:48:58;3.20;85.00
70820;DHT22;58439;51.046;13.692;2023-02-11T00:51:26;3.30;85.10
70820;DHT22;58439;51.046;13.692;2023-02-11T00:53:53;3.30;85.10
70820;DHT22;58439;51.046;13.692;2023-02-11T00:56:21;3.30;85.00
70820;DHT22;58439;51.046;13.692;2023-02-11T00:58:49;3.30;84.90
70820;DHT22;58439;51.046;13.692;2023-02-11T01:01:16;3.40;84.50
70820;DHT22;58439;51.046;13.692;2023-02-11T01:03:47;3.40;84.30
70820;DHT22;58439;51.046;13.692;2023-02-11T01:06:14;3.40;84.10
70820;DHT22;58439;51.046;13.692;2023-02-11T01:08:42;3.50;83.80
70820;DHT22;58439;51.046;13.692;2023-02-11T01:11:11;3.50;83.60
70820;DHT22;58439;51.046;13.692;2023-02-11T01:13:42;3.50;83.50
70820;DHT22;58439;51.046;13.692;2023-02-11T01:16:13;3.50;83.80
70820;DHT22;58439;51.046;13.692;2023-02-11T01:18:40;3.40;83.90
70820;DHT22;58439;51.046;13.692;2023-02-11T01:21:10;3.40;84.00
70820;DHT22;58439;51.046;13.692;2023-02-11T01:23:37;3.50;84.20
70820;DHT22;58439;51.046;13.692;2023-02-11T01:26:05;3.50;84.20
70820;DHT22;58439;51.046;13.692;2023-02-11T01:28:32;3.40;84.70
70820;DHT22;58439;51.046;13.692;2023-02-11T01:31:00;3.50;84.50
70820;DHT22;58439;51.046;13.692;2023-02-11T01:36:21;3.60;84.70
70820;DHT22;58439;51.046;13.692;2023-02-11T01:38:49;3.60;84.30
70820;DHT22;58439;51.046;13.692;2023-02-11T01:41:19;3.70;84.10
70820;DHT22;58439;51.046;13.692;2023-02-11T01:43:47;3.80;84.00
70820;DHT22;58439;51.046;13.692;2023-02-11T01:49:48;3.80;83.80
70820;DHT22;58439;51.046;13.692;2023-02-11T01:55:09;3.90;83.00
70820;DHT22;58439;51.046;13.692;2023-02-11T01:57:59;4.10;82.70
70820;DHT22;58439;51.046;13.692;2023-02-11T02:00:44;4.10;82.20
70820;DHT22;58439;51.046;13.692;2023-02-11T02:03:20;4.10;82.20
70820;DHT22;58439;51.046;13.692;2023-02-11T02:08:30;4.20;81.70
70820;DHT22;58439;51.046;13.692;2023-02-11T02:11:02;4.20;81.60
70820;DHT22;58439;51.046;13.692;2023-02-11T02:13:31;4.20;81.60
70820;DHT22;58439;51.046;13.692;2023-02-11T02:16:07;4.20;81.40
70820;DHT22;58439;51.046;13.692;2023-02-11T02:18:53;4.20;81.30
70820;DHT22;58439;51.046;13.692;2023-02-11T02:21:44;4.30;81.30
70820;DHT22;58439;51.046;13.692;2023-02-11T02:27:49;4.30;81.20
70820;DHT22;58439;51.046;13.692;2023-02-11T02:30:45;4.40;80.90
70820;DHT22;58439;51.046;13.692;2023-02-11T02:33:40;4.40;80.80
70820;DHT22;58439;51.046;13.692;2023-02-11T02:36:14;4.50;80.50
70820;DHT22;58439;51.046;13.692;2023-02-11T02:39:06;4.50;80.40
70820;DHT22;58439;51.046;13.692;2023-02-11T02:41:43;4.50;80.10
70820;DHT22;58439;51.046;13.692;2023-02-11T02:44:11;4.60;79.90
70820;DHT22;58439;51.046;13.692;2023-02-11T02:46:39;4.60;79.80
70820;DHT22;58439;51.046;13.692;2023-02-11T02:49:11;4.60;79.30
70820;DHT22;58439;51.046;13.692;2023-02-11T03:00:31;4.70;78.00
70820;DHT22;58439;51.046;13.692;2023-02-11T03:11:28;4.90;76.20
70820;DHT22;58439;51.046;13.692;2023-02-11T03:13:55;4.90;76.00
70820;DHT22;58439;51.046;13.692;2023-02-11T03:17:10;4.90;75.90
70820;DHT22;58439;51.046;13.692;2023-02-11T03:19:38;5.00;75.40
70820;DHT22;58439;51.046;13.692;2023-02-11T03:22:11;5.00;75.20
70820;DHT22;58439;51.046;13.692;2023-02-11T03:24:45;5.00;75.00
70820;DHT22;58439;51.046;13.692;2023-02-11T03:30:37;4.90;75.00
70820;DHT22;58439;51.046;13.692;2023-02-11T03:33:42;5.00;74.80
70820;DHT22;58439;51.046;13.692;2023-02-11T03:40:18;5.00;74.70
70820;DHT22;58439;51.046;13.692;2023-02-11T03:42:48;4.90;75.30
70820;DHT22;58439;51.046;13.692;2023-02-11T03:45:19;4.90;75.80
70820;DHT22;58439;51.046;13.692;2023-02-11T03:47:53;4.80;76.30
70820;DHT22;58439;51.046;13.692;2023-02-11T03:50:24;4.80;76.70
70820;DHT22;58439;51.046;13.692;2023-02-11T03:52:54;4.80;77.00
70820;DHT22;58439;51.046;13.692;2023-02-11T03:55:23;4.80;76.90
70820;DHT22;58439;51.046;13.692;2023-02-11T03:57:54;4.90;77.10
70820;DHT22;58439;51.046;13.692;2023-02-11T04:00:34;4.80;77.10
70820;DHT22;58439;51.046;13.692;2023-02-11T04:03:03;4.80;77.30
70820;DHT22;58439;51.046;13.692;2023-02-11T04:05:32;4.80;77.70
70820;DHT22;58439;51.046;13.692;2023-02-11T04:08:00;4.90;78.00
70820;DHT22;58439;51.046;13.692;2023-02-11T04:10:58;4.90;78.00
70820;DHT22;58439;51.046;13.692;2023-02-11T04:13:57;4.90;78.20
70820;DHT22;58439;51.046;13.692;2023-02-11T04:16:26;4.90;78.50
70820;DHT22;58439;51.046;13.692;2023-02-11T04:19:04;4.90;78.20
70820;DHT22;58439;51.046;13.692;2023-02-11T04:21:48;5.00;78.40
70820;DHT22;58439;51.046;13.692;2023-02-11T04:24:28;5.00;78.50
70820;DHT22;58439;51.046;13.692;2023-02-11T04:26:56;5.00;78.50
70820;DHT22;58439;51.046;13.692;2023-02-11T04:29:23;5.00;78.30
70820;DHT22;58439;51.046;13.692;2023-02-11T04:31:59;5.10;77.90
70820;DHT22;58439;51.046;13.692;2023-02-11T04:34:27;5.10;77.80
70820;DHT22;58439;51.046;13.692;2023-02-11T04:51:52;5.00;79.00
70820;DHT22;58439;51.046;13.692;2023-02-11T04:54:20;5.00;79.00
70820;DHT22;58439;51.046;13.692;2023-02-11T04:56:48;4.90;79.30
70820;DHT22;58439;51.046;13.692;2023-02-11T04:59:15;4.90;79.60
70820;DHT22;58439;51.046;13.692;2023-02-11T05:01:43;4.90;80.50
70820;DHT22;58439;51.046;13.692;2023-02-11T05:04:20;4.80;81.90
70820;DHT22;58439;51.046;13.692;2023-02-11T05:07:07;4.70;85.80
70820;DHT22;58439;51.046;13.692;2023-02-11T05:09:42;4.40;88.40
70820;DHT22;58439;51.046;13.692;2023-02-11T05:13:28;4.30;90.10
70820;DHT22;58439;51.046;13.692;2023-02-11T05:20:01;4.30;91.10
70820;DHT22;58439;51.046;13.692;2023-02-11T05:22:29;4.40;90.90
70820;DHT22;58439;51.046;13.692;2023-02-11T05:24:57;4.40;90.70
70820;DHT22;58439;51.046;13.692;2023-02-11T05:27:24;4.40;90.50
70820;DHT22;58439;51.046;13.692;2023-02-11T05:29:52;4.50;90.90
70820;DHT22;58439;51.046;13.692;2023-02-11T05:32:20;4.40;90.60
70820;DHT22;58439;51.046;13.692;2023-02-11T05:34:49;4.50;90.80
70820;DHT22;58439;51.046;13.692;2023-02-11T05:37:17;4.50;90.80
70820;DHT22;58439;51.046;13.692;2023-02-11T05:39:47;4.40;90.90
70820;DHT22;58439;51.046;13.692;2023-02-11T05:42:14;4.40;91.20
70820;DHT22;58439;51.046;13.692;2023-02-11T05:44:41;4.40;91.40
70820;DHT22;58439;51.046;13.692;2023-02-11T05:47:08;4.40;92.00
70820;DHT22;58439;51.046;13.692;2023-02-11T05:49:35;4.30;92.30
70820;DHT22;58439;51.046;13.692;2023-02-11T05:52:04;4.30;92.50
70820;DHT22;58439;51.046;13.692;2023-02-11T05:54:32;4.30;93.00
70820;DHT22;58439;51.046;13.692;2023-02-11T05:56:59;4.30;93.20
70820;DHT22;58439;51.046;13.692;2023-02-11T05:59:26;4.30;93.40
70820;DHT22;58439;51.046;13.692;2023-02-11T06:01:54;4.30;93.50
70820;DHT22;58439;51.046;13.692;2023-02-11T06:04:21;4.30;93.50
70820;DHT22;58439;51.046;13.692;2023-02-11T06:06:48;4.30;93.50
70820;DHT22;58439;51.046;13.692;2023-02-11T06:09:15;4.40;93.50
70820;DHT22;58439;51.046;13.692;2023-02-11T06:11:43;4.40;93.40
70820;DHT22;58439;51.046;13.692;2023-02-11T06:14:10;4.40;93.30
70820;DHT22;58439;51.046;13.692;2023-02-11T06:16:40;4.40;93.10
70820;DHT22;58439;51.046;13.692;2023-02-11T06:19:08;4.40;93.10
70820;DHT22;58439;51.046;13.692;2023-02-11T06:21:36;4.40;93.10
70820;DHT22;58439;51.046;13.692;2023-02-11T06:24:13;4.40;93.20
70820;DHT22;58439;51.046;13.692;2023-02-11T06:27:08;4.40;93.20
70820;DHT22;58439;51.046;13.692;2023-02-11T06:29:38;4.50;93.00
70820;DHT22;58439;51.046;13.692;2023-02-11T06:32:06;4.50;92.70
70820;DHT22;58439;51.046;13.692;2023-02-11T06:34:45;4.50;92.50
70820;DHT22;58439;51.046;13.692;2023-02-11T06:37:13;4.50;92.20
70820;DHT22;58439;51.046;13.692;2023-02-11T06:39:40;4.60;92.10
70820;DHT22;58439;51.046;13.692;2023-02-11T06:42:10;4.60;91.90
70820;DHT22;58439;51.046;13.692;2023-02-11T06:44:39;4.70;91.60
70820;DHT22;58439;51.046;13.692;2023-02-11T06:47:07;4.70;91.50
70820;DHT22;58439;51.046;13.692;2023-02-11T06:49:34;4.70;91.50
70820;DHT22;58439;51.046;13.692;2023-02-11T06:52:02;4.70;91.60
70820;DHT22;58439;51.046;13.692;2023-02-11T06:54:29;4.70;91.60
70820;DHT22;58439;51.046;13.692;2023-02-11T06:56:57;4.70;91.70
70820;DHT22;58439;51.046;13.692;2023-02-11T07:00:04;4.70;91.80
70820;DHT22;58439;51.046;13.692;2023-02-11T07:02:32;4.70;91.90
70820;DHT22;58439;51.046;13.692;2023-02-11T07:04:59;4.70;92.20
70820;DHT22;58439;51.046;13.692;2023-02-11T07:07:26;4.70;92.50
70820;DHT22;58439;51.046;13.692;2023-02-11T07:09:54;4.70;93.10
70820;DHT22;58439;51.046;13.692;2023-02-11T07:12:21;4.60;93.70
70820;DHT22;58439;51.046;13.692;2023-02-11T07:14:49;4.50;94.30
70820;DHT22;58439;51.046;13.692;2023-02-11T07:17:16;4.40;95.20
70820;DHT22;58439;51.046;13.692;2023-02-11T07:19:43;4.40;95.70
70820;DHT22;58439;51.046;13.692;2023-02-11T07:22:10;4.30;96.30
70820;DHT22;58439;51.046;13.692;2023-02-11T07:24:37;4.30;96.80
70820;DHT22;58439;51.046;13.692;2023-02-11T07:27:07;4.30;96.90
70820;DHT22;58439;51.046;13.692;2023-02-11T07:29:34;4.30;97.10
70820;DHT22;58439;51.046;13.692;2023-02-11T07:32:02;4.30;97.20
70820;DHT22;58439;51.046;13.692;2023-02-11T07:34:29;4.40;97.30
70820;DHT22;58439;51.046;13.692;2023-02-11T07:36:56;4.40;97.30
70820;DHT22;58439;51.046;13.692;2023-02-11T07:39:24;4.40;97.20
70820;DHT22;58439;51.046;13.692;2023-02-11T07:41:53;4.30;97.60
70820;DHT22;58439;51.046;13.692;2023-02-11T07:44:20;4.30;97.90
70820;DHT22;58439;51.046;13.692;2023-02-11T07:46:48;4.30;98.40
70820;DHT22;58439;51.046;13.692;2023-02-11T07:49:15;4.30;98.50
70820;DHT22;58439;51.046;13.692;2023-02-11T07:51:43;4.30;98.70
70820;DHT22;58439;51.046;13.692;2023-02-11T07:54:11;4.40;98.60
70820;DHT22;58439;51.046;13.692;2023-02-11T07:56:38;4.50;98.40
70820;DHT22;58439;51.046;13.692;2023-02-11T07:59:20;4.50;98.20
70820;DHT22;58439;51.046;13.692;2023-02-11T08:01:58;4.50;98.00
70820;DHT22;58439;51.046;13.692;2023-02-11T08:04:25;4.50;97.60
70820;DHT22;58439;51.046;13.692;2023-02-11T08:06:53;4.50;97.40
70820;DHT22;58439;51.046;13.692;2023-02-11T08:09:24;4.60;97.40
70820;DHT22;58439;51.046;13.692;2023-02-11T08:11:52;4.60;97.30
70820;DHT22;58439;51.046;13.692;2023-02-11T08:14:19;4.60;97.40
70820;DHT22;58439;51.046;13.692;2023-02-11T08:16:47;4.60;97.30
70820;DHT22;58439;51.046;13.692;2023-02-11T08:19:15;4.60;97.10
70820;DHT22;58439;51.046;13.692;2023-02-11T08:21:43;4.70;96.70
70820;DHT22;58439;51.046;13.692;2023-02-11T08:24:10;4.80;96.00
70820;DHT22;58439;51.046;13.692;2023-02-11T08:26:39;5.00;95.30
70820;DHT22;58439;51.046;13.692;2023-02-11T08:29:08;5.10;94.60
70820;DHT22;58439;51.046;13.692;2023-02-11T08:31:39;5.10;93.80
70820;DHT22;58439;51.046;13.692;2023-02-11T08:34:27;5.20;93.50
70820;DHT22;58439;51.046;13.692;2023-02-11T08:36:55;5.20;93.20
70820;DHT22;58439;51.046;13.692;2023-02-11T08:39:22;5.20;93.10
70820;DHT22;58439;51.046;13.692;2023-02-11T08:41:53;5.20;92.90
70820;DHT22;58439;51.046;13.692;2023-02-11T08:44:23;5.20;92.80
70820;DHT22;58439;51.046;13.692;2023-02-11T08:46:50;5.10;92.60
70820;DHT22;58439;51.046;13.692;2023-02-11T08:49:18;5.20;92.50
70820;DHT22;58439;51.046;13.692;2023-02-11T08:51:58;5.20;92.40
70820;DHT22;58439;51.046;13.692;2023-02-11T08:54:33;5.30;91.90
70820;DHT22;58439;51.046;13.692;2023-02-11T08:57:00;5.30;91.60
70820;DHT22;58439;51.046;13.692;2023-02-11T08:59:28;5.40;91.20
70820;DHT22;58439;51.046;13.692;2023-02-11T09:01:55;5.40;91.20
70820;DHT22;58439;51.046;13.692;2023-02-11T09:04:23;5.40;91.10
70820;DHT22;58439;51.046;13.692;2023-02-11T09:06:50;5.40;91.10
70820;DHT22;58439;51.046;13.692;2023-02-11T09:09:17;5.50;90.90
70820;DHT22;58439;51.046;13.692;2023-02-11T09:11:44;5.50;90.70
70820;DHT22;58439;51.046;13.692;2023-02-11T09:14:14;5.50;90.50
70820;DHT22;58439;51.046;13.692;2023-02-11T09:16:44;5.50;90.30
70820;DHT22;58439;51.046;13.692;2023-02-11T09:19:12;5.60;90.40
70820;DHT22;58439;51.046;13.692;2023-02-11T09:21:39;5.60;90.40
70820;DHT22;58439;51.046;13.692;2023-02-11T09:46:19;5.90;90.50
70820;DHT22;58439;51.046;13.692;2023-02-11T09:53:25;5.80;91.00
70820;DHT22;58439;51.046;13.692;2023-02-11T09:56:11;5.90;91.30
70820;DHT22;58439;51.046;13.692;2023-02-11T10:24:42;6.30;89.40
70820;DHT22;58439;51.046;13.692;2023-02-11T10:28:49;6.30;89.30
70820;DHT22;58439;51.046;13.692;2023-02-11T10:38:41;6.40;88.40
70820;DHT22;58439;51.046;13.692;2023-02-11T10:41:12;6.60;88.60
70820;DHT22;58439;51.046;13.692;2023-02-11T10:43:51;6.70;87.30
70820;DHT22;58439;51.046;13.692;2023-02-11T10:46:54;6.80;86.50
70820;DHT22;58439;51.046;13.692;2023-02-11T10:49:42;6.90;85.60
70820;DHT22;58439;51.046;13.692;2023-02-11T10:55:38;6.80;86.20
70820;DHT22;58439;51.046;13.692;2023-02-11T10:58:05;6.80;86.10
70820;DHT22;58439;51.046;13.692;2023-02-11T11:00:34;6.80;86.40
70820;DHT22;58439;51.046;13.692;2023-02-11T11:03:17;6.80;86.50
70820;DHT22;58439;51.046;13.692;2023-02-11T11:05:48;6.80;86.40
70820;DHT22;58439;51.046;13.692;2023-02-11T11:08:18;6.80;86.90
70820;DHT22;58439;51.046;13.692;2023-02-11T11:10:46;6.70;87.20
70820;DHT22;58439;51.046;13.692;2023-02-11T11:13:30;6.60;88.10
70820;DHT22;58439;51.046;13.692;2023-02-11T11:16:16;6.60;88.80
70820;DHT22;58439;51.046;13.692;2023-02-11T11:19:14;6.60;88.90
70820;DHT22;58439;51.046;13.692;2023-02-11T11:21:51;6.70;89.10
70820;DHT22;58439;51.046;13.692;2023-02-11T11:24:28;6.70;89.00
70820;DHT22;58439;51.046;13.692;2023-02-11T11:29:56;6.70;89.20
70820;DHT22;58439;51.046;13.692;2023-02-11T11:32:27;6.70;89.60
70820;DHT22;58439;51.046;13.692;2023-02-11T11:35:04;6.70;89.60
70820;DHT22;58439;51.046;13.692;2023-02-11T11:37:50;6.70;89.90
70820;DHT22;58439;51.046;13.692;2023-02-11T11:40:32;6.70;89.90
70820;DHT22;58439;51.046;13.692;2023-02-11T11:43:16;6.70;89.80
70820;DHT22;58439;51.046;13.692;2023-02-11T11:46:01;6.70;90.00
70820;DHT22;58439;51.046;13.692;2023-02-11T11:48:37;6.80;89.90
70820;DHT22;58439;51.046;13.692;2023-02-11T11:51:09;6.80;89.50
70820;DHT22;58439;51.046;13.692;2023-02-11T11:53:39;6.80;89.30
70820;DHT22;58439;51.046;13.692;2023-02-11T12:20:32;7.10;89.00
70820;DHT22;58439;51.046;13.692;2023-02-11T12:37:08;6.80;90.50
70820;DHT22;58439;51.046;13.692;2023-02-11T12:43:23;6.70;91.50
70820;DHT22;58439;51.046;13.692;2023-02-11T12:59:38;6.70;92.80
70820;DHT22;58439;51.046;13.692;2023-02-11T13:05:12;6.60;92.90
70820;DHT22;58439;51.046;13.692;2023-02-11T13:07:58;6.60;93.20
70820;DHT22;58439;51.046;13.692;2023-02-11T13:10:38;6.50;93.40
70820;DHT22;58439;51.046;13.692;2023-02-11T13:19:13;6.50;93.80
70820;DHT22;58439;51.046;13.692;2023-02-11T13:22:10;6.50;93.80
70820;DHT22;58439;51.046;13.692;2023-02-11T13:25:21;6.50;93.70
70820;DHT22;58439;51.046;13.692;2023-02-11T13:43:04;6.70;94.30
70820;DHT22;58439;51.046;13.692;2023-02-11T13:50:22;6.80;94.00
70820;DHT22;58439;51.046;13.692;2023-02-11T13:53:07;6.90;94.00
70820;DHT22;58439;51.046;13.692;2023-02-11T13:56:08;6.80;94.00
70820;DHT22;58439;51.046;13.692;2023-02-11T13:58:48;6.80;94.20
70820;DHT22;58439;51.046;13.692;2023-02-11T14:01:40;6.70;94.40
70820;DHT22;58439;51.046;13.692;2023-02-11T14:08:18;6.70;94.60
70820;DHT22;58439;51.046;13.692;2023-02-11T14:19:33;6.60;94.60
70820;DHT22;58439;51.046;13.692;2023-02-11T14:22:03;6.60;94.60
70820;DHT22;58439;51.046;13.692;2023-02-11T14:25:25;6.50;94.60
70820;DHT22;58439;51.046;13.692;2023-02-11T14:28:53;6.60;94.50
70820;DHT22;58439;51.046;13.692;2023-02-11T14:38:37;6.70;94.00
70820;DHT22;58439;51.046;13.692;2023-02-11T14:41:40;6.60;94.00
70820;DHT22;58439;51.046;13.692;2023-02-11T14:44:15;6.60;94.00
70820;DHT22;58439;51.046;13.692;2023-02-11T14:46:48;6.60;94.10
70820;DHT22;58439;51.046;13.692;2023-02-11T14:51:49;6.60;94.10
70820;DHT22;58439;51.046;13.692;2023-02-11T14:54:20;6.60;94.10
70820;DHT22;58439;51.046;13.692;2023-02-11T14:57:06;6.60;94.00
70820;DHT22;58439;51.046;13.692;2023-02-11T14:59:35;6.60;94.00
70820;DHT22;58439;51.046;13.692;2023-02-11T15:02:14;6.60;94.00
70820;DHT22;58439;51.046;13.692;2023-02-11T15:04:46;6.60;94.00
70820;DHT22;58439;51.046;13.692;2023-02-11T15:07:14;6.60;94.10
70820;DHT22;58439;51.046;13.692;2023-02-11T15:09:43;6.50;94.10
70820;DHT22;58439;51.046;13.692;2023-02-11T15:47:26;6.70;95.10
70820;DHT22;58439;51.046;13.692;2023-02-11T15:50:59;6.70;95.40
70820;DHT22;58439;51.046;13.692;2023-02-11T16:17:29;6.30;97.80
70820;DHT22;58439;51.046;13.692;2023-02-11T16:43:49;5.90;99.90
70820;DHT22;58439;51.046;13.692;2023-02-11T16:46:38;5.80;99.90
70820;DHT22;58439;51.046;13.692;2023-02-11T16:53:01;5.60;99.90
70820;DHT22;58439;51.046;13.692;2023-02-11T16:56:16;5.50;99.90
70820;DHT22;58439;51.046;13.692;2023-02-11T17:02:17;5.40;99.90
70820;DHT22;58439;51.046;13.692;2023-02-11T17:05:15;5.40;99.90
70820;DHT22;58439;51.046;13.692;2023-02-11T17:10:44;5.40;99.90
70820;DHT22;58439;51.046;13.692;2023-02-11T18:14:40;5.70;99.90
70820;DHT22;58439;51.046;13.692;2023-02-11T18:18:50;5.70;99.90
70820;DHT22;58439;51.046;13.692;2023-02-11T18:22:16;5.80;99.90
70820;DHT22;58439;51.046;13.692;2023-02-11T18:38:12;5.80;99.90
70820;DHT22;58439;51.046;13.692;2023-02-11T18:40:51;5.70;99.90
70820;DHT22;58439;51.046;13.692;2023-02-11T18:49:18;5.70;99.90
70820;DHT22;58439;51.046;13.692;2023-02-11T18:52:05;5.70;99.90
70820;DHT22;58439;51.046;13.692;2023-02-11T18:54:42;5.70;99.90
70820;DHT22;58439;51.046;13.692;2023-02-11T18:57:27;5.70;99.90
70820;DHT22;58439;51.046;13.692;2023-02-11T19:00:01;5.70;99.90
70820;DHT22;58439;51.046;13.692;2023-02-11T19:02:30;5.70;99.90
70820;DHT22;58439;51.046;13.692;2023-02-11T19:05:00;5.70;99.90
70820;DHT22;58439;51.046;13.692;2023-02-11T19:11:53;5.70;99.90
70820;DHT22;58439;51.046;13.692;2023-02-11T19:22:15;5.70;99.90
70820;DHT22;58439;51.046;13.692;2023-02-11T19:26:06;5.70;99.90
70820;DHT22;58439;51.046;13.692;2023-02-11T19:29:43;5.70;99.90
70820;DHT22;58439;51.046;13.692;2023-02-11T19:32:50;5.70;99.90
70820;DHT22;58439;51.046;13.692;2023-02-11T19:36:49;5.70;99.90
70820;DHT22;58439;51.046;13.692;2023-02-11T19:39:18;5.70;99.90
70820;DHT22;58439;51.046;13.692;2023-02-11T19:57:11;5.70;99.90
70820;DHT22;58439;51.046;13.692;2023-02-11T20:00:22;5.70;99.90
70820;DHT22;58439;51.046;13.692;2023-02-11T20:02:56;5.70;99.90
70820;DHT22;58439;51.046;13.692;2023-02-11T20:05:50;5.70;99.90
70820;DHT22;58439;51.046;13.692;2023-02-11T20:09:29;5.70;99.90
70820;DHT22;58439;51.046;13.692;2023-02-11T20:12:28;5.70;99.90
70820;DHT22;58439;51.046;13.692;2023-02-11T20:15:07;5.70;99.90
70820;DHT22;58439;51.046;13.692;2023-02-11T20:22:31;5.70;99.90
70820;DHT22;58439;51.046;13.692;2023-02-11T20:28:35;5.70;99.90
70820;DHT22;58439;51.046;13.692;2023-02-11T20:34:55;5.70;99.90
70820;DHT22;58439;51.046;13.692;2023-02-11T20:38:01;5.70;99.90
70820;DHT22;58439;51.046;13.692;2023-02-11T20:40:34;5.70;99.90
70820;DHT22;58439;51.046;13.692;2023-02-11T20:43:34;5.80;99.90
70820;DHT22;58439;51.046;13.692;2023-02-11T20:46:27;5.80;99.90
70820;DHT22;58439;51.046;13.692;2023-02-11T20:56:33;5.80;99.90
70820;DHT22;58439;51.046;13.692;2023-02-11T20:59:27;5.90;99.90
70820;DHT22;58439;51.046;13.692;2023-02-11T21:02:29;5.90;99.90
70820;DHT22;58439;51.046;13.692;2023-02-11T21:05:02;6.00;99.90
70820;DHT22;58439;51.046;13.692;2023-02-11T21:08:19;6.00;99.90
70820;DHT22;58439;51.046;13.692;2023-02-11T21:11:37;6.10;99.90
70820;DHT22;58439;51.046;13.692;2023-02-11T21:15:14;6.10;99.90
70820;DHT22;58439;51.046;13.692;2023-02-11T21:18:17;6.10;99.90
70820;DHT22;58439;51.046;13.692;2023-02-11T21:20:55;6.10;99.90
70820;DHT22;58439;51.046;13.692;2023-02-11T21:27:15;6.10;99.90
70820;DHT22;58439;51.046;13.692;2023-02-11T21:33:33;6.20;99.90
70820;DHT22;58439;51.046;13.692;2023-02-11T21:39:50;6.20;99.90
70820;DHT22;58439;51.046;13.692;2023-02-11T21:43:21;6.20;99.90
70820;DHT22;58439;51.046;13.692;2023-02-11T21:50:37;6.10;99.90
70820;DHT22;58439;51.046;13.692;2023-02-11T21:53:21;6.20;99.90
70820;DHT22;58439;51.046;13.692;2023-02-11T21:56:36;6.20;99.90
70820;DHT22;58439;51.046;13.692;2023-02-11T21:59:09;6.20;99.90
70820;DHT22;58439;51.046;13.692;2023-02-11T22:02:32;6.20;99.90
70820;DHT22;58439;51.046;13.692;2023-02-11T22:05:11;6.10;99.90
70820;DHT22;58439;51.046;13.692;2023-02-11T22:08:12;6.10;99.90
70820;DHT22;58439;51.046;13.692;2023-02-11T22:11:33;6.10;99.90
70820;DHT22;58439;51.046;13.692;2023-02-11T22:14:41;6.10;99.90
70820;DHT22;58439;51.046;13.692;2023-02-11T22:17:22;6.00;99.90
70820;DHT22;58439;51.046;13.692;2023-02-11T22:19:57;6.00;99.90
70820;DHT22;58439;51.046;13.692;2023-02-11T22:27:49;6.00;99.90
70820;DHT22;58439;51.046;13.692;2023-02-11T22:40:20;6.00;99.90
70820;DHT22;58439;51.046;13.692;2023-02-11T22:49:35;6.10;99.90
70820;DHT22;58439;51.046;13.692;2023-02-11T22:57:36;6.20;99.90
70820;DHT22;58439;51.046;13.692;2023-02-11T23:19:01;6.20;99.90
70820;DHT22;58439;51.046;13.692;2023-02-11T23:23:43;6.20;99.90
70820;DHT22;58439;51.046;13.692;2023-02-11T23:31:47;6.30;99.90
70820;DHT22;58439;51.046;13.692;2023-02-11T23:39:40;6.30;99.90
70820;DHT22;58439;51.046;13.692;2023-02-11T23:50:06;6.40;99.90
70820;DHT22;58439;51.046;13.692;2023-02-11T23:59:21;6.40;99.90
